Union Mills, Iowa
Current Conditions -  °F | °C
As of 12:35 PM on Monday 26 Jan 2015 (Local Time) from KPEA Reporting Station
Scattered Clouds Scattered Clouds  
Wind Chill: 37°   Ceiling: Unl
Heat Index: 44°   Visibility: 10mi
Dew Point: 35°   Wind: 17mph
Humidity: 71%   Direction: 310°NW
Pressure: 29.81"   Gusts: 22mph
Location:  41.465°N, 92.7016°W
Report Text: KPEA 261835Z AUTO 31015G19KT 10SM SCT024 07/02 A2981 RMK AO2 T00690019
Loading
Personal Weather Stations






























Interactive Weather Map New forecast layout! Learn more

10-Day Weather Forecast

Advertisements
Track Severe Weather on mobile